Time;durP1;ratioP1;P1;durP2;ratioP2;P2;SDS_P1;SDS_P2;PMS_P1;PMS_P2;Temp;Humidity;BMP_temperature;BMP_pressure;BME280_temperature;BME280_humidity;BME280_pressure;Samples;Min_cycle;Max_cycle;Signal;HPM_P1;HPM_P2
2022/06/25 00:00:59;;;;;;;34.78;30.48;;;17.70;99.90;;;;;;5028947;28;20087;-63
2022/06/25 00:03:24;;;;;;;34.33;30.05;;;17.50;99.90;;;;;;5015576;28;20073;-63
2022/06/25 00:05:50;;;;;;;34.58;29.67;;;17.70;99.90;;;;;;5015660;28;20037;-63
2022/06/25 00:08:16;;;;;;;33.40;28.33;;;17.50;99.90;;;;;;5049071;28;20036;-63
2022/06/25 00:10:42;;;;;;;36.72;30.33;;;17.50;99.90;;;;;;5049558;28;20038;-63
2022/06/25 00:13:07;;;;;;;34.30;27.75;;;17.60;99.90;;;;;;5029154;28;20045;-63
2022/06/25 00:15:33;;;;;;;32.60;27.30;;;17.80;99.90;;;;;;5020507;28;20037;-63
2022/06/25 00:17:59;;;;;;;35.65;28.83;;;17.70;99.90;;;;;;5026829;28;20131;-63
2022/06/25 00:20:24;;;;;;;34.05;28.33;;;17.80;99.90;;;;;;5027067;28;20504;-63
2022/06/25 00:22:50;;;;;;;32.95;28.00;;;17.80;99.90;;;;;;5006170;28;20077;-63
2022/06/25 00:25:15;;;;;;;34.28;27.95;;;17.60;99.90;;;;;;5015148;28;20030;-63
2022/06/25 00:27:41;;;;;;;35.03;27.95;;;17.80;99.90;;;;;;4997336;28;20443;-63
2022/06/25 00:30:08;;;;;;;29.73;26.50;;;17.50;99.90;;;;;;5028943;28;20399;-63
2022/06/25 00:32:34;;;;;;;30.63;27.30;;;17.60;99.90;;;;;;5029926;28;20045;-63
2022/06/25 00:35:01;;;;;;;32.47;27.58;;;17.60;99.90;;;;;;4991117;28;20041;-63
2022/06/25 00:37:26;;;;;;;32.17;26.80;;;17.70;99.90;;;;;;5018894;28;20038;-63
2022/06/25 00:39:52;;;;;;;35.63;26.00;;;18.00;99.90;;;;;;5015303;28;20109;-63
2022/06/25 00:42:18;;;;;;;30.98;26.77;;;17.50;99.90;;;;;;5015352;28;20457;-63
2022/06/25 00:44:43;;;;;;;31.52;25.45;;;17.30;99.90;;;;;;5024898;28;20046;-63
2022/06/25 00:47:12;;;;;;;31.15;26.55;;;17.50;99.90;;;;;;5019824;28;20041;-63
2022/06/25 00:49:38;;;;;;;34.92;26.10;;;17.50;99.90;;;;;;5034079;28;20040;-64
2022/06/25 00:52:09;;;;;;;29.08;25.75;;;17.50;99.90;;;;;;5054923;28;20033;-63
2022/06/25 00:54:37;;;;;;;29.35;25.38;;;17.70;99.90;;;;;;5026754;28;20491;-64
2022/06/25 00:57:06;;;;;;;31.13;23.80;;;17.50;99.90;;;;;;5036535;28;20637;-63
2022/06/25 00:59:38;;;;;;;30.20;25.95;;;17.40;99.90;;;;;;5054326;28;20040;-62
2022/06/25 01:02:04;;;;;;;31.88;26.08;;;17.50;99.90;;;;;;5054207;28;20399;-63
2022/06/25 01:04:30;;;;;;;31.98;24.63;;;17.50;99.90;;;;;;5053417;28;20060;-62
2022/06/25 01:06:56;;;;;;;30.42;25.70;;;17.40;99.90;;;;;;5003201;28;20045;-62
2022/06/25 01:09:21;;;;;;;28.70;24.83;;;17.30;99.90;;;;;;5004039;28;20034;-62
2022/06/25 01:11:47;;;;;;;27.50;24.33;;;17.40;99.90;;;;;;5029205;28;20037;-62
2022/06/25 01:14:14;;;;;;;32.58;26.42;;;17.20;99.90;;;;;;5053896;28;20036;-62
2022/06/25 01:16:40;;;;;;;30.38;25.90;;;17.30;99.90;;;;;;5028772;28;20558;-62
2022/06/25 01:19:10;;;;;;;30.63;23.95;;;17.40;99.90;;;;;;5003853;28;20107;-62
2022/06/25 01:21:37;;;;;;;31.40;26.45;;;17.30;99.90;;;;;;5013414;28;20041;-62
2022/06/25 01:24:05;;;;;;;32.20;25.95;;;17.20;99.90;;;;;;5013893;28;20048;-62
2022/06/25 01:26:35;;;;;;;29.60;25.35;;;17.30;99.90;;;;;;4996491;28;20193;-62
2022/06/25 01:29:03;;;;;;;31.70;26.17;;;17.20;99.90;;;;;;5027255;28;20498;-62
2022/06/25 01:31:29;;;;;;;29.75;25.55;;;17.20;99.90;;;;;;4996384;28;20038;-62
2022/06/25 01:33:54;;;;;;;29.73;23.92;;;17.40;99.90;;;;;;5028290;28;20042;-62
2022/06/25 01:36:20;;;;;;;27.55;23.77;;;17.10;99.90;;;;;;5010070;28;20101;-62
2022/06/25 01:38:45;;;;;;;28.55;25.42;;;17.20;99.90;;;;;;5028730;28;20044;-62
2022/06/25 01:41:11;;;;;;;28.98;24.00;;;17.10;99.90;;;;;;5014152;28;20097;-62
2022/06/25 01:43:37;;;;;;;29.60;23.83;;;17.10;99.90;;;;;;5034796;28;20540;-62
2022/06/25 01:46:04;;;;;;;28.33;24.38;;;17.10;99.90;;;;;;5013241;28;20041;-62
2022/06/25 01:48:30;;;;;;;29.98;24.23;;;17.00;99.90;;;;;;5018675;28;20055;-62
2022/06/25 01:50:55;;;;;;;25.58;21.15;;;17.10;99.90;;;;;;5052694;28;20041;-62
2022/06/25 01:53:21;;;;;;;24.85;22.13;;;17.10;99.90;;;;;;5053668;28;20049;-62
2022/06/25 01:55:47;;;;;;;27.02;22.85;;;17.10;99.90;;;;;;5010533;28;20046;-62
2022/06/25 01:58:12;;;;;;;25.00;22.30;;;16.90;99.90;;;;;;5014071;28;20033;-62
2022/06/25 02:00:38;;;;;;;24.60;19.90;;;17.00;99.90;;;;;;5023076;28;20041;-62
2022/06/25 02:03:04;;;;;;;23.73;20.60;;;17.00;99.90;;;;;;5018741;28;20580;-62
2022/06/25 02:08:16;;;;;;;23.80;20.88;;;16.90;99.90;;;;;;5027016;28;20069;-62
2022/06/25 02:10:42;;;;;;;21.95;19.10;;;17.00;99.90;;;;;;5025769;28;20080;-61
2022/06/25 02:13:08;;;;;;;23.63;19.98;;;17.00;99.90;;;;;;4999019;28;20048;-62
2022/06/25 02:15:34;;;;;;;24.90;20.52;;;17.10;99.90;;;;;;5015872;28;20404;-62
2022/06/25 02:18:00;;;;;;;22.38;19.70;;;17.00;99.90;;;;;;4989110;28;20041;-62
2022/06/25 02:20:26;;;;;;;22.92;19.60;;;16.90;99.90;;;;;;5048616;28;20077;-62
2022/06/25 02:22:52;;;;;;;21.05;18.63;;;17.00;99.90;;;;;;5037587;28;20073;-62
2022/06/25 02:25:17;;;;;;;21.40;18.92;;;17.10;99.90;;;;;;4992653;28;20045;-62
2022/06/25 02:27:43;;;;;;;22.33;18.23;;;17.00;99.90;;;;;;5013464;28;20030;-62
2022/06/25 02:30:09;;;;;;;21.73;18.88;;;17.00;99.90;;;;;;5013207;28;20451;-62
2022/06/25 02:32:35;;;;;;;23.50;18.77;;;16.80;99.90;;;;;;5012787;28;20053;-62
2022/06/25 02:35:01;;;;;;;21.50;17.83;;;16.90;99.90;;;;;;4999184;28;20399;-62
2022/06/25 02:37:27;;;;;;;22.63;19.13;;;17.00;99.90;;;;;;5017072;28;20034;-62
2022/06/25 02:39:52;;;;;;;23.65;17.92;;;16.80;99.90;;;;;;5012934;28;20041;-62
2022/06/25 02:42:18;;;;;;;21.70;18.10;;;16.90;99.90;;;;;;5013471;28;20111;-62
2022/06/25 02:44:44;;;;;;;20.83;17.45;;;16.80;99.90;;;;;;4995004;28;20045;-62
2022/06/25 02:47:09;;;;;;;21.35;17.17;;;17.00;99.90;;;;;;5026422;28;20042;-62
2022/06/25 02:49:35;;;;;;;20.83;17.10;;;16.90;99.90;;;;;;5051712;28;20029;-62
2022/06/25 02:52:00;;;;;;;18.20;16.30;;;16.90;99.90;;;;;;5038227;28;20044;-62
2022/06/25 02:54:26;;;;;;;18.23;16.33;;;17.00;99.90;;;;;;5015080;28;20116;-62
2022/06/25 02:59:49;;;;;;;18.10;16.27;;;16.90;99.90;;;;;;5008399;28;20491;-62
2022/06/25 03:02:15;;;;;;;22.48;16.20;;;17.00;99.90;;;;;;4996677;28;20141;-62
2022/06/25 03:04:40;;;;;;;19.77;17.20;;;16.90;99.90;;;;;;5032331;28;20049;-62
2022/06/25 03:07:06;;;;;;;20.42;16.55;;;16.70;99.90;;;;;;5047832;28;20483;-62
2022/06/25 03:09:32;;;;;;;19.42;16.90;;;16.80;99.90;;;;;;4989939;28;20033;-62
2022/06/25 03:11:57;;;;;;;22.13;16.80;;;16.80;99.90;;;;;;5024189;28;20038;-62
2022/06/25 03:14:23;;;;;;;20.63;16.13;;;18.90;99.90;;;;;;5024645;28;20123;-63
2022/06/25 03:16:49;;;;;;;17.25;15.52;;;16.80;99.90;;;;;;5003308;28;20104;-62
2022/06/25 03:19:14;;;;;;;21.20;16.27;;;16.90;99.90;;;;;;4998038;28;20049;-62
2022/06/25 03:21:40;;;;;;;19.63;16.38;;;16.70;99.90;;;;;;5005075;28;20034;-63
2022/06/25 03:24:05;;;;;;;17.27;14.90;;;16.70;99.90;;;;;;5022438;28;20150;-62
2022/06/25 03:26:31;;;;;;;20.08;15.20;;;16.70;99.90;;;;;;5012500;28;20499;-62
2022/06/25 03:28:57;;;;;;;17.48;15.70;;;16.70;99.90;;;;;;5021190;28;20475;-62
2022/06/25 03:31:23;;;;;;;17.48;14.98;;;16.70;99.90;;;;;;5052195;28;20029;-62
2022/06/25 03:33:49;;;;;;;19.20;16.20;;;16.60;99.90;;;;;;5029751;28;20042;-62
2022/06/25 03:36:15;;;;;;;15.85;14.18;;;16.60;99.90;;;;;;4995007;28;20103;-62
2022/06/25 03:38:41;;;;;;;16.88;14.50;;;16.70;99.90;;;;;;5021698;28;20434;-62
2022/06/25 03:43:54;;;;;;;17.48;14.88;;;16.60;99.90;;;;;;5032931;28;20487;-62
2022/06/25 03:46:20;;;;;;;16.10;14.18;;;;;;;;;;5025437;28;20040;-62
2022/06/25 03:48:45;;;;;;;17.52;15.57;;;16.50;99.90;;;;;;5052115;28;20041;-62
2022/06/25 03:51:11;;;;;;;16.90;15.10;;;18.00;99.90;;;;;;5002539;28;20148;-62
2022/06/25 03:53:36;;;;;;;17.02;15.10;;;16.50;99.90;;;;;;5005823;28;20064;-62
2022/06/25 03:56:02;;;;;;;16.40;14.57;;;16.70;99.90;;;;;;5029478;28;20137;-62
2022/06/25 03:58:28;;;;;;;16.02;14.20;;;16.60;99.90;;;;;;5012104;28;20112;-62
2022/06/25 04:00:54;;;;;;;16.98;15.23;;;16.60;99.90;;;;;;5030441;28;20112;-62
2022/06/25 04:03:19;;;;;;;17.77;14.75;;;16.50;99.90;;;;;;5048910;28;20052;-62
2022/06/25 04:05:45;;;;;;;19.75;14.73;;;16.60;99.90;;;;;;5026390;28;20037;-62
2022/06/25 04:08:10;;;;;;;16.42;14.73;;;16.50;99.90;;;;;;5007318;28;20435;-62
2022/06/25 04:10:36;;;;;;;17.20;15.40;;;16.60;99.90;;;;;;5015702;28;20032;-62
2022/06/25 04:13:02;;;;;;;20.63;14.38;;;16.70;99.90;;;;;;5030798;28;20050;-62
2022/06/25 04:15:27;;;;;;;17.35;14.48;;;16.60;99.90;;;;;;5043243;28;20044;-63
2022/06/25 04:17:53;;;;;;;22.65;15.77;;;16.60;99.90;;;;;;5022759;28;20158;-63
2022/06/25 04:20:19;;;;;;;16.40;14.70;;;16.60;99.90;;;;;;5010684;28;20042;-63
2022/06/25 04:22:44;;;;;;;16.77;15.07;;;16.60;99.90;;;;;;5008331;28;20472;-63
2022/06/25 04:25:10;;;;;;;16.67;14.95;;;16.50;99.90;;;;;;5018486;28;20037;-63
2022/06/25 04:30:19;;;;;;;18.10;14.50;;;16.60;99.90;;;;;;5018487;28;20492;-64
2022/06/25 04:32:45;;;;;;;15.93;14.15;;;16.60;99.90;;;;;;5003882;28;20037;-63
2022/06/25 04:35:11;;;;;;;16.98;14.48;;;16.60;99.90;;;;;;5000755;28;20046;-64
2022/06/25 04:37:36;;;;;;;15.77;11.85;;;16.80;99.90;;;;;;5003881;28;20061;-64
2022/06/25 04:40:02;;;;;;;16.35;12.45;;;16.80;99.90;;;;;;5001050;28;20491;-64
2022/06/25 04:42:28;;;;;;;14.73;13.00;;;16.80;99.90;;;;;;5019759;28;20084;-64
2022/06/25 04:44:54;;;;;;;13.57;12.23;;;;;;;;;;5014822;28;20041;-63
2022/06/25 04:47:20;;;;;;;14.48;12.30;;;16.90;99.90;;;;;;5026170;28;20488;-64
2022/06/25 04:49:45;;;;;;;13.30;10.88;;;16.90;99.90;;;;;;5010613;28;20030;-64
2022/06/25 04:52:13;;;;;;;15.77;12.20;;;17.10;99.90;;;;;;5032000;28;20037;-63
2022/06/25 04:54:39;;;;;;;14.82;12.23;;;17.00;99.90;;;;;;5000206;28;20466;-64
2022/06/25 04:57:05;;;;;;;13.40;11.75;;;17.00;99.90;;;;;;5031516;28;20036;-64
2022/06/25 04:59:31;;;;;;;13.27;11.13;;;17.20;99.90;;;;;;5030549;28;20530;-64
2022/06/25 05:01:57;;;;;;;12.38;10.30;;;17.40;99.90;;;;;;5011295;28;20136;-64
2022/06/25 05:04:22;;;;;;;11.80;10.60;;;17.60;99.90;;;;;;5033364;28;20048;-65
2022/06/25 05:06:48;;;;;;;12.07;10.57;;;17.60;99.90;;;;;;5030688;28;20116;-63
2022/06/25 05:09:13;;;;;;;10.38;9.23;;;17.80;99.90;;;;;;5033274;28;20068;-65
2022/06/25 05:11:39;;;;;;;10.13;8.70;;;18.00;99.90;;;;;;5033770;28;20563;-64
2022/06/25 05:14:05;;;;;;;11.00;8.02;;;18.40;99.90;;;;;;5013370;28;20103;-65
2022/06/25 05:16:30;;;;;;;8.98;7.13;;;18.80;99.90;;;;;;5008395;28;20488;-65
2022/06/25 05:18:56;;;;;;;8.13;7.32;;;18.90;99.90;;;;;;5005341;28;20114;-65
2022/06/25 05:21:21;;;;;;;9.68;7.15;;;18.70;99.90;;;;;;5010561;28;20098;-65
2022/06/25 05:23:47;;;;;;;11.45;7.45;;;18.70;99.90;;;;;;5008419;28;20045;-64
2022/06/25 05:26:13;;;;;;;9.52;7.80;;;18.80;99.90;;;;;;4992679;28;20511;-64
2022/06/25 05:28:38;;;;;;;11.23;8.05;;;18.80;99.90;;;;;;5012271;28;20095;-64
2022/06/25 05:31:04;;;;;;;9.52;7.57;;;18.70;99.90;;;;;;5025778;28;20034;-64
2022/06/25 05:33:29;;;;;;;8.68;7.00;;;18.70;99.90;;;;;;5012483;28;20053;-64
2022/06/25 05:35:55;;;;;;;10.93;7.63;;;18.60;99.90;;;;;;4996903;28;20077;-64
2022/06/25 05:38:21;;;;;;;8.50;6.82;;;18.70;99.90;;;;;;5016928;28;20049;-64
2022/06/25 05:40:47;;;;;;;7.95;7.13;;;18.70;99.90;;;;;;5027981;28;20473;-64
2022/06/25 05:43:12;;;;;;;9.02;6.63;;;18.80;99.90;;;;;;5019868;28;20053;-64
2022/06/25 05:45:38;;;;;;;9.73;6.38;;;18.90;99.90;;;;;;5025495;28;20411;-64
2022/06/25 05:48:04;;;;;;;8.02;5.43;;;19.20;99.90;;;;;;5007730;28;20041;-64
2022/06/25 05:50:30;;;;;;;7.45;6.35;;;18.90;99.90;;;;;;5026375;28;20049;-65
2022/06/25 05:52:56;;;;;;;7.40;5.40;;;19.30;99.90;;;;;;5015992;28;20044;-65
2022/06/25 05:55:23;;;;;;;8.02;5.97;;;19.50;99.90;;;;;;4991941;28;20050;-64
2022/06/25 05:57:49;;;;;;;8.32;6.00;;;19.50;99.90;;;;;;5009675;28;20046;-64
2022/06/25 06:00:15;;;;;;;8.13;5.68;;;19.70;99.90;;;;;;4996067;28;20190;-65
2022/06/25 06:02:41;;;;;;;5.85;4.75;;;19.60;99.90;;;;;;5022637;28;20128;-64
2022/06/25 06:05:07;;;;;;;7.78;5.07;;;19.80;99.90;;;;;;5002275;28;20061;-64
2022/06/25 06:07:33;;;;;;;5.88;4.55;;;20.90;99.90;;;;;;5024272;28;20081;-64
2022/06/25 06:09:59;;;;;;;5.57;4.82;;;19.90;99.90;;;;;;5005710;28;20140;-64
2022/06/25 06:12:24;;;;;;;6.68;4.47;;;19.80;99.90;;;;;;5014007;28;20033;-65
2022/06/25 06:14:50;;;;;;;6.72;4.30;;;19.90;99.90;;;;;;5011286;28;20128;-64
2022/06/25 06:17:15;;;;;;;9.07;4.72;;;19.90;99.90;;;;;;5022166;28;20424;-64
2022/06/25 06:19:41;;;;;;;5.07;4.30;;;19.80;99.90;;;;;;5011393;28;20037;-63
2022/06/25 06:22:06;;;;;;;7.25;5.18;;;20.00;99.90;;;;;;5030915;28;20090;-64
2022/06/25 06:24:32;;;;;;;6.45;4.93;;;20.00;99.90;;;;;;4992819;28;20123;-64
2022/06/25 06:26:58;;;;;;;6.25;4.18;;;20.20;99.90;;;;;;5020884;28;20042;-64
2022/06/25 06:29:24;;;;;;;6.45;4.07;;;20.40;99.90;;;;;;4991956;28;20053;-65
2022/06/25 06:31:49;;;;;;;7.13;3.38;;;20.50;99.90;;;;;;4990145;28;20504;-65
2022/06/25 06:34:15;;;;;;;5.22;3.20;;;20.80;99.90;;;;;;5028919;28;20077;-66
2022/06/25 06:36:41;;;;;;;5.53;3.40;;;20.80;99.90;;;;;;5011596;28;20423;-64
2022/06/25 06:39:06;;;;;;;4.53;3.38;;;20.50;99.90;;;;;;5014193;28;20504;-64
2022/06/25 06:41:32;;;;;;;7.25;3.50;;;22.00;99.90;;;;;;4993247;28;20396;-64
2022/06/25 06:43:58;;;;;;;11.52;4.03;;;20.60;99.90;;;;;;5000820;28;20065;-64
2022/06/25 06:46:24;;;;;;;7.75;3.15;;;20.70;99.90;;;;;;5006357;28;20500;-64
2022/06/25 06:48:49;;;;;;;4.85;2.90;;;20.60;99.90;;;;;;5000789;28;20049;-64
2022/06/25 06:51:15;;;;;;;6.60;3.60;;;20.70;99.90;;;;;;5007432;28;20053;-64
2022/06/25 06:53:40;;;;;;;5.65;3.28;;;20.80;99.90;;;;;;5025601;28;20045;-65
2022/06/25 06:56:06;;;;;;;5.78;3.13;;;20.70;99.90;;;;;;5029411;28;20476;-64
2022/06/25 06:58:31;;;;;;;6.72;3.00;;;20.60;99.90;;;;;;5026488;28;20127;-66
2022/06/25 07:00:57;;;;;;;7.35;4.28;;;20.50;99.90;;;;;;4994289;28;20042;-66
2022/06/25 07:03:23;;;;;;;4.05;3.00;;;20.50;99.90;;;;;;5027777;28;20092;-65
2022/06/25 07:05:48;;;;;;;8.52;3.53;;;20.50;99.90;;;;;;5003229;28;20128;-65
2022/06/25 07:08:14;;;;;;;9.45;3.20;;;20.60;99.90;;;;;;5021144;28;20146;-65
2022/06/25 07:10:39;;;;;;;4.90;3.58;;;20.30;99.90;;;;;;5028595;28;20398;-65
2022/06/25 07:13:05;;;;;;;6.10;3.20;;;20.80;99.90;;;;;;5023918;28;20077;-65
2022/06/25 07:15:31;;;;;;;9.60;3.72;;;20.90;99.90;;;;;;5019715;28;20041;-65
2022/06/25 07:17:56;;;;;;;9.40;3.90;;;20.50;99.90;;;;;;5020891;28;20034;-63
2022/06/25 07:20:22;;;;;;;7.80;3.30;;;20.60;99.90;;;;;;5019003;28;20104;-64
2022/06/25 07:22:47;;;;;;;7.75;3.72;;;20.80;99.90;;;;;;5022664;28;20091;-64
2022/06/25 07:25:13;;;;;;;6.05;3.33;;;20.70;99.90;;;;;;5018376;28;20041;-64
2022/06/25 07:27:39;;;;;;;5.32;3.58;;;20.60;99.90;;;;;;5022043;28;20041;-65
2022/06/25 07:30:05;;;;;;;8.98;3.47;;;20.80;99.90;;;;;;5007142;28;20041;-64
2022/06/25 07:32:31;;;;;;;7.18;3.58;;;20.60;99.90;;;;;;5020336;28;20501;-64
2022/06/25 07:34:57;;;;;;;9.68;4.05;;;20.50;99.90;;;;;;5020668;28;20163;-65
2022/06/25 07:37:22;;;;;;;7.78;3.53;;;20.70;99.90;;;;;;5004905;28;20057;-64
2022/06/25 07:39:48;;;;;;;7.78;3.60;;;20.50;99.90;;;;;;5002604;28;20338;-63
2022/06/25 07:42:14;;;;;;;7.97;3.92;;;20.90;99.90;;;;;;4999704;28;20045;-65
2022/06/25 07:44:39;;;;;;;5.45;3.55;;;20.50;99.90;;;;;;5003048;28;20049;-65
2022/06/25 07:47:05;;;;;;;6.05;3.53;;;20.90;99.90;;;;;;4990200;28;20480;-65
2022/06/25 07:51:56;;;;;;;4.93;2.95;;;20.90;99.90;;;;;;5009973;28;20038;-65
2022/06/25 07:52:16;;;;;;;8.07;3.47;;;20.70;99.90;;;;;;5013650;28;20056;-64
2022/06/25 07:54:42;;;;;;;8.73;3.50;;;20.80;99.90;;;;;;5048992;28;20037;-64
2022/06/25 07:57:07;;;;;;;7.72;3.05;;;20.80;99.90;;;;;;5024598;28;20038;-64
2022/06/25 07:59:33;;;;;;;7.07;3.30;;;20.80;99.90;;;;;;5022086;28;20044;-64
2022/06/25 08:01:58;;;;;;;6.50;3.20;;;20.80;99.90;;;;;;5022156;28;20048;-65
2022/06/25 08:04:24;;;;;;;8.40;3.00;;;21.00;99.90;;;;;;5014567;28;20392;-65
2022/06/25 08:06:54;;;;;;;4.55;2.63;;;20.80;99.90;;;;;;5028893;28;20038;-65
2022/06/25 08:09:20;;;;;;;9.07;3.20;;;20.80;99.90;;;;;;5025545;28;20057;-65
2022/06/25 08:11:45;;;;;;;3.70;2.50;;;20.70;99.90;;;;;;5004553;28;20048;-65
2022/06/25 08:14:11;;;;;;;6.38;3.03;;;20.90;99.90;;;;;;5030621;28;20411;-66
2022/06/25 08:16:38;;;;;;;8.98;3.30;;;20.80;99.90;;;;;;5012692;28;20041;-66
2022/06/25 08:19:03;;;;;;;4.75;2.50;;;21.00;99.90;;;;;;5003530;28;20046;-66
2022/06/25 08:21:32;;;;;;;9.60;2.80;;;20.80;99.90;;;;;;5007019;28;20041;-63
2022/06/25 08:23:58;;;;;;;8.05;2.35;;;20.90;99.90;;;;;;5027971;28;20591;-64
2022/06/25 08:26:23;;;;;;;6.10;2.85;;;21.40;99.90;;;;;;5020285;28;20116;-65
2022/06/25 08:28:49;;;;;;;4.85;2.17;;;21.10;99.90;;;;;;5030981;28;20116;-65
2022/06/25 08:31:15;;;;;;;3.40;1.92;;;21.50;99.90;;;;;;5016758;28;20487;-65
2022/06/25 08:33:41;;;;;;;5.72;3.00;;;21.30;99.90;;;;;;5039657;28;20041;-65
2022/06/25 08:36:06;;;;;;;5.90;1.70;;;21.60;99.90;;;;;;5032440;28;20034;-65
2022/06/25 08:38:35;;;;;;;5.90;1.80;;;21.50;99.90;;;;;;5032646;28;20097;-64
2022/06/25 08:41:02;;;;;;;5.20;2.10;;;21.70;99.90;;;;;;5031409;28;20073;-65
2022/06/25 08:43:29;;;;;;;6.25;2.17;;;21.60;99.90;;;;;;5032173;28;20364;-65
2022/06/25 08:45:55;;;;;;;4.80;2.15;;;21.80;99.90;;;;;;5032802;28;20036;-65
2022/06/25 08:48:23;;;;;;;5.63;2.63;;;21.80;99.90;;;;;;5016795;28;20522;-66
2022/06/25 08:50:50;;;;;;;7.40;3.38;;;21.60;99.90;;;;;;5014167;28;20088;-64
2022/06/25 08:53:17;;;;;;;6.97;2.80;;;21.70;99.90;;;;;;5002622;28;20085;-66
2022/06/25 08:55:44;;;;;;;5.03;1.70;;;22.00;99.90;;;;;;5026518;28;20507;-64
2022/06/25 08:58:11;;;;;;;8.90;3.13;;;22.20;99.90;;;;;;5017324;28;20077;-66
2022/06/25 09:00:39;;;;;;;3.03;1.40;;;21.80;99.90;;;;;;5019570;28;20052;-65
2022/06/25 09:03:07;;;;;;;3.70;1.75;;;22.10;99.90;;;;;;4997999;28;20061;-66
2022/06/25 09:05:40;;;;;;;3.35;1.92;;;22.00;99.90;;;;;;5006171;28;20096;-66
2022/06/25 09:08:11;;;;;;;5.50;2.10;;;21.90;99.90;;;;;;5014632;28;20050;-66
2022/06/25 09:10:38;;;;;;;5.75;2.30;;;21.90;99.90;;;;;;5019054;28;20495;-66
2022/06/25 09:13:08;;;;;;;4.45;1.80;;;22.00;99.90;;;;;;5021256;28;20033;-66
2022/06/25 09:15:45;;;;;;;6.20;1.92;;;22.10;99.90;;;;;;5011731;28;20041;-65
2022/06/25 09:18:14;;;;;;;5.95;1.67;;;22.30;99.90;;;;;;5011854;28;20034;-65
2022/06/25 09:20:56;;;;;;;6.18;2.03;;;22.20;99.90;;;;;;5011036;28;20399;-65
2022/06/25 09:23:22;;;;;;;4.65;1.50;;;22.50;99.90;;;;;;4999102;28;20065;-65
2022/06/25 09:26:00;;;;;;;3.50;1.67;;;21.70;99.90;;;;;;5012981;28;20464;-65
2022/06/25 09:28:44;;;;;;;3.60;1.48;;;22.40;99.90;;;;;;5012364;28;20045;-65
2022/06/25 09:31:10;;;;;;;2.92;1.48;;;22.40;99.90;;;;;;4997929;28;20060;-64
2022/06/25 09:33:37;;;;;;;4.60;1.92;;;22.50;99.90;;;;;;4998896;28;20480;-63
2022/06/25 09:36:03;;;;;;;4.28;1.80;;;22.70;99.90;;;;;;5012584;28;20073;-64
2022/06/25 09:38:31;;;;;;;9.15;2.17;;;22.70;99.90;;;;;;5016798;28;20065;-64
2022/06/25 09:40:59;;;;;;;4.32;1.20;;;24.40;99.90;;;;;;5012934;28;20484;-64
2022/06/25 09:43:26;;;;;;;4.25;1.27;;;22.90;99.90;;;;;;5018650;28;20045;-64
2022/06/25 09:45:54;;;;;;;3.28;1.15;;;22.70;99.90;;;;;;5020940;28;20049;-64
2022/06/25 09:48:25;;;;;;;2.35;1.00;;;22.80;99.90;;;;;;5005281;28;20057;-64
2022/06/25 09:51:18;;;;;;;2.78;1.13;;;23.20;99.90;;;;;;4995159;28;20041;-64
2022/06/25 09:53:50;;;;;;;3.50;1.38;;;22.80;99.90;;;;;;5029641;28;20041;-64
2022/06/25 09:56:22;;;;;;;4.43;1.02;;;22.80;99.90;;;;;;5028059;28;20048;-64
2022/06/25 09:58:49;;;;;;;1.60;0.75;;;22.90;99.90;;;;;;4999446;28;20073;-64
2022/06/25 10:01:20;;;;;;;3.58;0.90;;;23.30;99.90;;;;;;5011882;28;20042;-65
2022/06/25 10:03:47;;;;;;;3.78;0.93;;;23.10;99.90;;;;;;5023048;28;20056;-65
2022/06/25 10:06:16;;;;;;;1.88;0.95;;;22.90;99.90;;;;;;4995167;28;20068;-65
2022/06/25 10:08:54;;;;;;;3.05;1.33;;;23.00;99.90;;;;;;5005754;28;20393;-65
2022/06/25 10:11:24;;;;;;;4.90;1.15;;;22.80;99.90;;;;;;5023405;28;20042;-65
2022/06/25 10:13:51;;;;;;;2.28;1.10;;;22.60;99.90;;;;;;4993967;28;20527;-63
2022/06/25 10:16:18;;;;;;;3.38;0.90;;;23.00;99.90;;;;;;5013732;28;20053;-62
2022/06/25 10:18:44;;;;;;;8.38;1.67;;;22.90;99.90;;;;;;5007102;28;20087;-64
2022/06/25 10:21:12;;;;;;;4.72;1.20;;;22.80;99.90;;;;;;5019996;28;20045;-63
2022/06/25 10:23:41;;;;;;;2.42;1.40;;;22.60;99.90;;;;;;5011952;28;20049;-63
2022/06/25 10:26:08;;;;;;;2.03;0.93;;;22.30;99.90;;;;;;5013571;28;20411;-63
2022/06/25 10:28:37;;;;;;;2.35;1.15;;;22.60;99.90;;;;;;5030249;28;20052;-63
2022/06/25 10:31:10;;;;;;;7.15;1.80;;;22.50;99.90;;;;;;5027965;28;20100;-63
2022/06/25 10:34:02;;;;;;;3.47;1.67;;;22.60;99.90;;;;;;5005130;28;20049;-63
2022/06/25 10:36:49;;;;;;;5.07;1.55;;;22.80;99.90;;;;;;5019726;28;20049;-63
2022/06/25 10:39:26;;;;;;;3.35;1.35;;;22.50;99.90;;;;;;5027839;28;20549;-63
2022/06/25 10:45:15;;;;;;;4.35;1.25;;;22.90;99.90;;;;;;5002741;28;20042;-64
2022/06/25 10:47:58;;;;;;;4.95;1.73;;;22.90;99.90;;;;;;4990211;28;20087;-63
2022/06/25 10:50:24;;;;;;;2.45;1.30;;;23.00;99.90;;;;;;5009888;28;20037;-63
2022/06/25 10:53:05;;;;;;;4.47;1.70;;;23.10;99.90;;;;;;4993798;28;20085;-63
2022/06/25 10:55:37;;;;;;;4.60;0.85;;;23.00;99.90;;;;;;4997336;28;20046;-63
2022/06/25 10:58:23;;;;;;;6.95;0.80;;;22.90;99.90;;;;;;4993890;28;20048;-64
2022/06/25 11:01:03;;;;;;;1.73;0.98;;;22.70;99.90;;;;;;4996368;28;20038;-63
2022/06/25 11:03:29;;;;;;;2.03;0.93;;;22.90;99.90;;;;;;5008490;28;20385;-63
2022/06/25 11:05:59;;;;;;;2.97;1.05;;;22.80;99.90;;;;;;4999607;28;20096;-64
2022/06/25 11:08:34;;;;;;;1.92;1.10;;;23.00;99.90;;;;;;5011737;28;20124;-64
2022/06/25 11:11:00;;;;;;;2.35;1.30;;;22.80;99.90;;;;;;5017226;28;20855;-63
2022/06/25 11:13:27;;;;;;;3.15;1.15;;;22.80;99.90;;;;;;5010810;28;20121;-64
2022/06/25 11:15:53;;;;;;;3.95;1.25;;;22.80;99.90;;;;;;5009493;28;20096;-64
2022/06/25 11:18:18;;;;;;;4.70;1.30;;;22.60;99.90;;;;;;5018053;28;20045;-64
2022/06/25 11:20:46;;;;;;;3.70;1.45;;;23.90;99.90;;;;;;4994324;28;20049;-64
2022/06/25 11:23:13;;;;;;;2.92;1.13;;;22.50;99.90;;;;;;5014122;28;20492;-64
2022/06/25 11:28:51;;;;;;;3.13;1.60;;;22.40;99.90;;;;;;5003205;28;20050;-64
2022/06/25 11:31:22;;;;;;;2.90;1.50;;;21.90;99.90;;;;;;5029259;28;20618;-64
2022/06/25 11:33:50;;;;;;;3.35;1.25;;;22.10;99.90;;;;;;5006184;28;20046;-64
2022/06/25 11:36:17;;;;;;;4.65;1.83;;;22.00;99.90;;;;;;5019558;28;20037;-64
2022/06/25 11:38:49;;;;;;;5.20;2.10;;;22.00;99.90;;;;;;5022569;28;20034;-64
2022/06/25 11:41:26;;;;;;;5.72;2.38;;;21.70;99.90;;;;;;5016093;28;20387;-64
2022/06/25 11:43:55;;;;;;;2.08;1.88;;;21.40;99.90;;;;;;5002088;28;20157;-64
2022/06/25 11:46:22;;;;;;;3.22;1.65;;;21.30;99.90;;;;;;5015491;28;20044;-64
2022/06/25 11:48:48;;;;;;;3.83;1.40;;;21.50;99.90;;;;;;5019882;28;20061;-64
2022/06/25 11:51:21;;;;;;;4.45;1.38;;;21.50;99.90;;;;;;4995786;28;20053;-64
2022/06/25 11:53:47;;;;;;;4.35;1.42;;;21.40;99.90;;;;;;5012664;28;20053;-64
2022/06/25 11:56:13;;;;;;;2.35;1.48;;;21.40;99.90;;;;;;5029821;28;20041;-64
2022/06/25 11:58:41;;;;;;;2.28;1.30;;;21.30;99.90;;;;;;5008169;28;20044;-64
2022/06/25 12:01:07;;;;;;;4.35;1.65;;;21.30;99.90;;;;;;5030613;28;20025;-64
2022/06/25 12:03:33;;;;;;;3.50;1.52;;;21.30;99.90;;;;;;5023278;28;20052;-64
2022/06/25 12:06:00;;;;;;;4.22;1.35;;;21.30;99.90;;;;;;5012571;28;20069;-64
2022/06/25 12:08:27;;;;;;;5.00;1.65;;;21.30;99.90;;;;;;5029540;28;20041;-64
2022/06/25 12:10:54;;;;;;;2.83;1.35;;;21.40;99.90;;;;;;5032855;28;20487;-63
2022/06/25 12:13:20;;;;;;;3.58;1.30;;;21.30;99.90;;;;;;5033726;28;20083;-64
2022/06/25 12:15:47;;;;;;;3.10;1.25;;;21.10;99.90;;;;;;5007406;28;20103;-64
2022/06/25 12:18:13;;;;;;;4.20;1.70;;;21.40;99.90;;;;;;5021770;28;20393;-64
2022/06/25 12:20:56;;;;;;;3.30;1.70;;;21.10;99.90;;;;;;5011861;28;20480;-64
2022/06/25 12:23:21;;;;;;;3.88;1.98;;;21.10;99.90;;;;;;5028205;28;20048;-64
2022/06/25 12:25:47;;;;;;;3.40;1.83;;;21.10;99.90;;;;;;5014349;28;20038;-64
2022/06/25 12:28:13;;;;;;;5.93;2.47;;;21.00;99.90;;;;;;5026910;28;20434;-64
2022/06/25 12:30:39;;;;;;;5.65;2.08;;;21.00;99.90;;;;;;5020827;28;20100;-64
2022/06/25 12:33:09;;;;;;;5.40;3.20;;;20.80;99.90;;;;;;5004363;28;20088;-63
2022/06/25 12:35:40;;;;;;;5.28;2.35;;;21.00;99.90;;;;;;5024325;28;20050;-64
2022/06/25 12:38:11;;;;;;;3.38;2.70;;;20.70;99.90;;;;;;5020534;28;20074;-64
2022/06/25 12:40:54;;;;;;;7.43;3.30;;;20.80;99.90;;;;;;5027017;28;20087;-64
2022/06/25 12:43:21;;;;;;;4.05;2.72;;;21.00;99.90;;;;;;5025497;28;20553;-63
2022/06/25 12:45:48;;;;;;;4.60;3.05;;;20.80;99.90;;;;;;5011652;28;20043;-64
2022/06/25 12:48:29;;;;;;;5.35;3.05;;;20.90;99.90;;;;;;5027682;28;20521;-63
2022/06/25 12:51:10;;;;;;;3.75;2.90;;;20.90;99.90;;;;;;5009653;28;20037;-64
2022/06/25 12:53:37;;;;;;;4.43;2.60;;;20.90;99.90;;;;;;5014654;28;20163;-64
2022/06/25 12:56:03;;;;;;;3.85;3.42;;;20.90;99.90;;;;;;5009117;28;20380;-64